TimeAEST,TemperatureF,Dew PointF,Humidity,Sea Level PressureIn,VisibilityMPH,Wind Direction,Wind SpeedMPH,Gust SpeedMPH,PrecipitationIn,Events,Conditions,WindDirDegrees,DateUTC
12:00 AM,73,69,82,30.08,,SE,29.9,,,,,130,2013-05-07 14:00:00
12:00 AM,73.4,68.0,83,30.06,-9999.0,SE,29.9,-,N/A,,Unknown,130,2013-05-07 14:00:00
12:30 AM,73.4,68.0,83,30.06,-9999.0,ESE,28.8,-,N/A,,Unknown,120,2013-05-07 14:30:00
1:00 AM,73.4,68.0,83,30.06,-9999.0,SE,28.8,-,N/A,,Unknown,130,2013-05-07 15:00:00
1:30 AM,73.4,68.0,83,30.06,-9999.0,SE,29.9,-,N/A,,Unknown,130,2013-05-07 15:30:00
2:00 AM,73.4,69.8,88,30.06,-9999.0,SE,28.8,-,N/A,,Unknown,130,2013-05-07 16:00:00
2:30 AM,73.4,68.0,83,30.04,-9999.0,SE,29.9,-,N/A,,Unknown,130,2013-05-07 16:30:00
3:00 AM,73,69,85,30.06,,SE,29.9,,,,,130,2013-05-07 17:00:00
3:00 AM,73.4,69.8,88,30.04,-9999.0,SE,29.9,-,N/A,,Unknown,130,2013-05-07 17:00:00
3:30 AM,73.4,68.0,83,30.04,-9999.0,SE,27.6,-,N/A,,Unknown,130,2013-05-07 17:30:00
4:00 AM,73.4,68.0,83,30.06,-9999.0,SE,31.1,-,N/A,,Unknown,130,2013-05-07 18:00:00
4:30 AM,73.4,68.0,83,30.06,-9999.0,SE,27.6,-,N/A,,Unknown,130,2013-05-07 18:30:00
5:00 AM,73.4,69.8,88,30.06,-9999.0,SE,29.9,-,N/A,,Unknown,130,2013-05-07 19:00:00
5:30 AM,73.4,68.0,83,30.06,-9999.0,SE,31.1,-,N/A,,Unknown,130,2013-05-07 19:30:00
6:00 AM,73,70,87,30.09,,SE,25.3,,,,,130,2013-05-07 20:00:00
6:00 AM,73.4,69.8,88,30.09,-9999.0,SE,25.3,-,N/A,,Unknown,130,2013-05-07 20:00:00
6:30 AM,73.4,66.2,78,30.09,-9999.0,ESE,27.6,-,N/A,,Unknown,120,2013-05-07 20:30:00
7:00 AM,73.4,68.0,83,30.09,-9999.0,ESE,24.2,-,N/A,,Unknown,120,2013-05-07 21:00:00
7:30 AM,73.4,68.0,83,30.09,-9999.0,ESE,23.0,-,N/A,,Unknown,120,2013-05-07 21:30:00
8:00 AM,75.2,69.8,83,30.12,-9999.0,ESE,21.9,-,N/A,,Unknown,120,2013-05-07 22:00:00
8:30 AM,75.2,69.8,83,30.12,-9999.0,ESE,19.6,-,N/A,,Unknown,120,2013-05-07 22:30:00
9:00 AM,72,71,94,30.13,,SSE,20.7,,,,,160,2013-05-07 23:00:00
9:00 AM,71.6,69.8,94,30.12,-9999.0,SSE,20.7,-,N/A,,Unknown,160,2013-05-07 23:00:00
9:30 AM,73.4,71.6,94,30.12,-9999.0,SSE,24.2,-,N/A,,Unknown,150,2013-05-07 23:30:00
10:00 AM,73.4,71.6,94,30.12,-9999.0,SSE,25.3,-,N/A,,Unknown,150,2013-05-08 00:00:00
10:30 AM,73.4,71.6,94,30.12,-9999.0,SSE,26.5,-,N/A,,Unknown,150,2013-05-08 00:30:00
11:00 AM,73.4,71.6,94,30.09,-9999.0,SSE,28.8,-,N/A,,Unknown,150,2013-05-08 01:00:00
11:30 AM,75.2,73.4,94,30.09,-9999.0,SSE,27.6,-,N/A,,Unknown,150,2013-05-08 01:30:00
11:45 AM,73.4,71.6,94,30.09,-9999.0,ESE,21.9,33.4,N/A,,Unknown,110,2013-05-08 01:45:00
11:54 AM,73.4,71.6,94,30.09,-9999.0,ESE,20.7,32.2,N/A,,Unknown,110,2013-05-08 01:54:00
11:58 AM,73.4,73.4,100,30.09,-9999.0,SE,25.3,-,N/A,,Unknown,140,2013-05-08 01:58:00
12:00 PM,73,73,99,30.09,,SE,25.3,,,,,140,2013-05-08 02:00:00
12:00 PM,73.4,73.4,100,30.09,-9999.0,SE,25.3,-,N/A,,Unknown,140,2013-05-08 02:00:00
12:30 PM,73.4,71.6,94,30.06,-9999.0,SSE,31.1,-,N/A,,Unknown,150,2013-05-08 02:30:00
12:58 PM,73.4,71.6,94,30.06,-9999.0,SE,26.5,-,N/A,,Unknown,130,2013-05-08 02:58:00
1:00 PM,75.2,71.6,89,30.06,-9999.0,ESE,26.5,-,N/A,,Unknown,120,2013-05-08 03:00:00
1:17 PM,73.4,71.6,94,30.06,-9999.0,SSE,21.9,-,N/A,,Unknown,150,2013-05-08 03:17:00
1:30 PM,75.2,71.6,89,30.06,-9999.0,SE,23.0,-,N/A,,Unknown,140,2013-05-08 03:30:00
2:00 PM,75.2,73.4,94,30.06,-9999.0,SE,21.9,-,N/A,,Unknown,140,2013-05-08 04:00:00
2:30 PM,75.2,73.4,94,30.04,-9999.0,SSE,20.7,-,N/A,,Unknown,150,2013-05-08 04:30:00
2:38 PM,75.2,71.6,89,30.04,-9999.0,ESE,24.2,-,N/A,,Unknown,110,2013-05-08 04:38:00
3:00 PM,76,71,80,30.04,,ESE,27.6,,,,,120,2013-05-08 05:00:00
3:00 PM,75.2,71.6,89,30.04,-9999.0,ESE,27.6,-,N/A,,Unknown,120,2013-05-08 05:00:00
3:30 PM,75.2,69.8,83,30.04,-9999.0,ESE,25.3,-,N/A,,Unknown,120,2013-05-08 05:30:00
4:00 PM,75.2,69.8,83,30.06,-9999.0,ESE,20.7,-,N/A,,Unknown,120,2013-05-08 06:00:00
4:30 PM,75.2,69.8,83,30.06,-9999.0,ESE,24.2,-,N/A,,Unknown,120,2013-05-08 06:30:00
5:00 PM,73.4,71.6,94,30.06,-9999.0,ESE,23.0,-,N/A,,Unknown,120,2013-05-08 07:00:00
5:04 PM,73.4,71.6,94,30.06,-9999.0,ESE,23.0,34.5,N/A,,Unknown,120,2013-05-08 07:04:00
5:07 PM,69.8,68.0,94,30.06,-9999.0,East,39.1,-,N/A,,Unknown,100,2013-05-08 07:07:00
5:18 PM,71.6,71.6,100,30.06,-9999.0,East,26.5,40.3,N/A,,Unknown,80,2013-05-08 07:18:00
5:25 PM,71.6,71.6,100,30.06,-9999.0,East,23.0,34.5,N/A,,Unknown,90,2013-05-08 07:25:00
5:29 PM,69.8,69.8,100,30.04,-9999.0,East,39.1,-,N/A,,Unknown,90,2013-05-08 07:29:00
5:34 PM,71.6,71.6,100,30.06,-9999.0,ESE,33.4,48.3,N/A,,Unknown,120,2013-05-08 07:34:00
5:41 PM,71.6,71.6,100,30.06,-9999.0,East,26.5,48.3,N/A,,Unknown,90,2013-05-08 07:41:00
5:50 PM,71.6,71.6,100,30.06,-9999.0,East,25.3,42.6,N/A,,Unknown,90,2013-05-08 07:50:00
5:57 PM,69.8,69.8,100,30.09,-9999.0,ESE,39.1,-,N/A,,Unknown,110,2013-05-08 07:57:00
6:00 PM,70,,,30.09,,ESE,38.0,,,,,110,2013-05-08 08:00:00
6:00 PM,69.8,69.8,100,30.09,-9999.0,ESE,38.0,-,N/A,,Unknown,110,2013-05-08 08:00:00
6:11 PM,-9999,-9999,N/A,30.09,-9999.0,ESE,24.2,36.8,N/A,,Unknown,110,2013-05-08 08:11:00
6:30 PM,71.6,71.6,100,30.09,-9999.0,ESE,20.7,-,N/A,,Unknown,110,2013-05-08 08:30:00
7:00 PM,73.4,71.6,94,30.09,-9999.0,ESE,17.3,-,N/A,,Unknown,120,2013-05-08 09:00:00
7:30 PM,73.4,71.6,94,30.09,-9999.0,SE,24.2,-,N/A,,Unknown,130,2013-05-08 09:30:00
8:00 PM,75.2,69.8,83,30.12,-9999.0,ESE,25.3,-,N/A,,Unknown,120,2013-05-08 10:00:00
8:30 PM,73.4,71.6,94,30.12,-9999.0,SE,23.0,-,N/A,,Unknown,130,2013-05-08 10:30:00
9:00 PM,73,72,96,30.13,,SE,24.2,,,,,140,2013-05-08 11:00:00
9:00 PM,73.4,71.6,94,30.12,-9999.0,SE,24.2,-,N/A,,Unknown,140,2013-05-08 11:00:00
9:20 PM,73.4,69.8,88,30.12,-9999.0,ESE,23.0,-,N/A,,Unknown,110,2013-05-08 11:20:00
9:30 PM,73.4,71.6,94,30.12,-9999.0,ESE,25.3,-,N/A,,Unknown,110,2013-05-08 11:30:00
10:00 PM,75.2,69.8,83,30.09,-9999.0,ESE,29.9,-,N/A,,Unknown,110,2013-05-08 12:00:00
10:18 PM,71.6,68.0,88,30.09,-9999.0,ESE,28.8,40.3,N/A,,Unknown,110,2013-05-08 12:18:00
10:30 PM,73.4,69.8,88,30.12,-9999.0,ESE,29.9,-,N/A,,Unknown,110,2013-05-08 12:30:00
11:00 PM,73.4,71.6,94,30.12,-9999.0,ESE,27.6,-,N/A,,Unknown,110,2013-05-08 13:00:00
11:25 PM,73.4,71.6,94,30.12,-9999.0,East,24.2,35.7,N/A,,Unknown,90,2013-05-08 13:25:00
11:30 PM,73.4,69.8,88,30.09,-9999.0,ESE,28.8,-,N/A,,Unknown,110,2013-05-08 13:30:00